createdAt,value
2022-12-14T00:01:52.798Z,0.57
2022-12-14T00:04:20.918Z,0.58
2022-12-14T00:06:48.154Z,0.57
2022-12-14T00:09:16.100Z,0.66
2022-12-14T00:11:43.449Z,0.62
2022-12-14T00:14:10.854Z,0.53
2022-12-14T00:16:38.156Z,0.56
2022-12-14T00:19:08.079Z,0.57
2022-12-14T00:21:35.413Z,0.57
2022-12-14T00:24:03.947Z,0.59
2022-12-14T00:26:32.573Z,0.61
2022-12-14T00:29:02.156Z,0.64
2022-12-14T00:31:31.446Z,0.61
2022-12-14T00:33:59.406Z,0.60
2022-12-14T00:36:27.127Z,0.57
2022-12-14T00:38:54.667Z,0.57
2022-12-14T00:41:21.967Z,0.71
2022-12-14T00:43:49.693Z,0.66
2022-12-14T00:46:18.200Z,0.65
2022-12-14T00:48:46.616Z,0.67
2022-12-14T00:51:15.238Z,0.65
2022-12-14T00:53:45.071Z,0.74
2022-12-14T00:56:12.935Z,0.74
2022-12-14T00:58:40.514Z,0.81
2022-12-14T01:01:10.123Z,0.75
2022-12-14T01:03:37.567Z,0.78
2022-12-14T01:06:04.947Z,0.80
2022-12-14T01:08:38.334Z,0.73
2022-12-14T01:11:07.367Z,0.70
2022-12-14T01:13:35.423Z,0.63
2022-12-14T01:16:13.127Z,0.67
2022-12-14T01:18:42.503Z,0.70
2022-12-14T01:21:36.172Z,0.66
2022-12-14T01:24:05.309Z,0.69
2022-12-14T01:26:37.704Z,0.72
2022-12-14T01:29:06.195Z,0.67
2022-12-14T01:31:36.591Z,0.76
2022-12-14T01:34:04.991Z,0.75
2022-12-14T01:36:33.999Z,0.74
2022-12-14T01:39:05.829Z,0.72
2022-12-14T01:41:37.243Z,0.74
2022-12-14T01:44:10.514Z,0.80
2022-12-14T01:46:41.799Z,0.88
2022-12-14T01:49:51.424Z,0.89
2022-12-14T01:52:34.765Z,0.85
2022-12-14T01:55:08.213Z,0.83
2022-12-14T01:58:06.588Z,0.90
2022-12-14T02:00:34.509Z,0.99
2022-12-14T02:03:13.734Z,1.04
2022-12-14T02:05:46.865Z,1.10
2022-12-14T02:08:16.405Z,1.00
2022-12-14T02:10:45.085Z,1.04
2022-12-14T02:13:17.818Z,1.04
2022-12-14T02:15:45.955Z,1.06
2022-12-14T02:18:19.483Z,1.06
2022-12-14T02:21:21.523Z,1.11
2022-12-14T02:24:07.685Z,1.17
2022-12-14T02:26:53.254Z,1.14
2022-12-14T02:29:33.343Z,1.11
2022-12-14T02:32:09.706Z,1.12
2022-12-14T02:35:08.000Z,1.11
2022-12-14T02:37:51.847Z,1.04
2022-12-14T02:40:38.818Z,1.05
2022-12-14T02:43:12.251Z,1.07
2022-12-14T02:45:45.123Z,1.28
2022-12-14T02:48:26.777Z,1.23
2022-12-14T02:51:22.313Z,1.37
2022-12-14T02:54:01.835Z,1.31
2022-12-14T02:56:36.973Z,1.39
2022-12-14T02:59:08.794Z,1.40
2022-12-14T03:01:38.384Z,1.43
2022-12-14T03:04:07.073Z,1.28
2022-12-14T03:06:34.843Z,1.37
2022-12-14T03:09:04.048Z,1.41
2022-12-14T03:11:48.193Z,1.34
2022-12-14T03:14:27.381Z,1.34
2022-12-14T03:17:02.148Z,1.48
2022-12-14T03:19:37.704Z,1.38
2022-12-14T03:22:13.351Z,1.24
2022-12-14T03:24:49.199Z,1.28
2022-12-14T03:27:31.441Z,1.22
2022-12-14T03:30:05.044Z,1.31
2022-12-14T03:32:35.582Z,1.24
2022-12-14T03:35:18.874Z,1.27
2022-12-14T03:37:54.790Z,1.28
2022-12-14T03:40:31.426Z,1.18
2022-12-14T03:43:11.119Z,1.21
2022-12-14T03:45:56.003Z,1.24
2022-12-14T03:48:29.858Z,1.18
2022-12-14T03:51:14.273Z,1.23
2022-12-14T03:53:50.347Z,1.23
2022-12-14T03:56:36.652Z,1.26
2022-12-14T03:59:39.278Z,1.35
2022-12-14T04:02:13.089Z,1.29
2022-12-14T04:04:48.508Z,1.34
2022-12-14T04:07:35.594Z,1.29
2022-12-14T04:10:33.732Z,1.30
2022-12-14T04:13:27.405Z,1.32
2022-12-14T04:16:18.090Z,1.28
2022-12-14T04:19:00.705Z,1.22
2022-12-14T04:21:52.237Z,1.23
2022-12-14T04:24:56.539Z,1.15
2022-12-14T04:27:37.296Z,1.03
2022-12-14T04:30:08.153Z,1.17
2022-12-14T04:32:44.511Z,1.15
2022-12-14T04:35:39.011Z,1.18
2022-12-14T04:38:17.895Z,1.30
2022-12-14T04:41:04.085Z,1.19
2022-12-14T04:43:41.369Z,1.32
2022-12-14T04:46:11.035Z,1.38
2022-12-14T04:49:22.996Z,1.31
2022-12-14T04:52:00.559Z,1.40
2022-12-14T04:55:05.247Z,1.41
2022-12-14T04:57:46.042Z,1.49
2022-12-14T05:00:14.509Z,1.57
2022-12-14T05:03:03.325Z,1.62
2022-12-14T05:06:15.383Z,1.52
2022-12-14T05:08:57.636Z,1.60
2022-12-14T05:11:52.447Z,1.54
2022-12-14T05:14:32.204Z,1.54
2022-12-14T05:17:07.943Z,1.64
2022-12-14T05:19:36.786Z,1.69
2022-12-14T05:22:08.360Z,1.65
2022-12-14T05:24:36.028Z,1.52
2022-12-14T05:27:03.735Z,1.56
2022-12-14T05:29:31.310Z,1.45
2022-12-14T05:31:59.111Z,1.45
2022-12-14T05:34:26.835Z,1.36
2022-12-14T05:36:54.605Z,1.37
2022-12-14T05:39:22.266Z,1.24
2022-12-14T05:41:49.781Z,1.41
2022-12-14T05:44:17.235Z,1.34
2022-12-14T05:46:44.699Z,1.38
2022-12-14T05:49:12.230Z,1.47
2022-12-14T05:51:39.738Z,1.41
2022-12-14T05:54:07.583Z,1.28
2022-12-14T05:56:35.106Z,1.35
2022-12-14T05:59:02.977Z,1.40
2022-12-14T06:01:30.628Z,1.38
2022-12-14T06:03:58.264Z,1.48
2022-12-14T06:06:25.566Z,1.54
2022-12-14T06:08:52.967Z,1.47
2022-12-14T06:11:22.705Z,1.41
2022-12-14T06:13:50.857Z,1.35
2022-12-14T06:16:21.404Z,1.22
2022-12-14T06:18:54.795Z,1.26
2022-12-14T06:21:26.443Z,1.36
2022-12-14T06:23:55.696Z,1.39
2022-12-14T06:26:24.208Z,1.38
2022-12-14T06:28:51.866Z,1.39
2022-12-14T06:31:27.805Z,1.46
2022-12-14T06:33:59.283Z,1.44
2022-12-14T06:36:29.438Z,1.49
2022-12-14T06:39:00.103Z,1.45
2022-12-14T06:41:27.668Z,1.40
2022-12-14T06:43:55.048Z,1.35
2022-12-14T06:46:23.094Z,1.38
2022-12-14T06:48:52.367Z,1.46
2022-12-14T06:51:20.912Z,1.62
2022-12-14T06:53:52.724Z,1.56
2022-12-14T06:56:21.261Z,1.64
2022-12-14T06:58:48.943Z,1.57
2022-12-14T07:01:19.066Z,1.60
2022-12-14T07:03:52.036Z,1.56
2022-12-14T07:06:19.905Z,1.60
2022-12-14T07:08:48.428Z,1.56
2022-12-14T07:11:17.426Z,1.50
2022-12-14T07:13:45.046Z,1.56
2022-12-14T07:16:22.028Z,1.61
2022-12-14T07:18:50.510Z,1.55
2022-12-14T07:21:20.144Z,1.66
2022-12-14T07:23:49.301Z,1.65
2022-12-14T07:26:24.182Z,1.60
2022-12-14T07:28:55.264Z,1.60
2022-12-14T07:31:27.524Z,1.59
2022-12-14T07:33:57.362Z,1.58
2022-12-14T07:36:28.569Z,1.52
2022-12-14T07:38:57.230Z,1.54
2022-12-14T07:41:30.859Z,1.54
2022-12-14T07:44:00.948Z,1.60
2022-12-14T07:46:30.861Z,1.66
2022-12-14T07:48:59.034Z,1.64
2022-12-14T07:51:32.204Z,1.68
2022-12-14T07:54:00.821Z,1.66
2022-12-14T07:56:34.542Z,1.65
2022-12-14T07:59:06.909Z,1.65
2022-12-14T08:01:37.029Z,1.66
2022-12-14T08:04:12.580Z,1.68
2022-12-14T08:06:41.170Z,1.71
2022-12-14T08:09:11.073Z,1.74
2022-12-14T08:11:40.354Z,1.73
2022-12-14T08:14:13.594Z,1.69
2022-12-14T08:16:41.238Z,1.70
2022-12-14T08:19:08.653Z,1.66
2022-12-14T08:21:36.420Z,1.71
2022-12-14T08:24:04.989Z,1.57
2022-12-14T08:26:35.786Z,1.60
2022-12-14T08:29:05.000Z,1.51
2022-12-14T08:31:34.005Z,1.51
2022-12-14T08:34:02.563Z,1.42
2022-12-14T08:36:34.073Z,1.53
2022-12-14T08:39:05.297Z,1.53
2022-12-14T08:41:33.085Z,1.61
2022-12-14T08:44:02.584Z,1.65
2022-12-14T08:46:32.468Z,1.60
2022-12-14T08:49:00.468Z,1.57
2022-12-14T08:51:29.503Z,1.51
2022-12-14T08:53:58.436Z,1.58
2022-12-14T08:56:27.798Z,1.54
2022-12-14T08:58:57.051Z,1.48
2022-12-14T09:01:32.719Z,1.50
2022-12-14T09:04:06.471Z,1.46
2022-12-14T09:06:39.131Z,1.52
2022-12-14T09:09:15.257Z,1.43
2022-12-14T09:11:45.276Z,1.47
2022-12-14T09:14:13.014Z,1.54
2022-12-14T09:16:40.725Z,1.50
2022-12-14T09:19:08.845Z,1.54
2022-12-14T09:21:36.609Z,1.54
2022-12-14T09:24:06.059Z,1.52
2022-12-14T09:26:33.974Z,1.56
2022-12-14T09:29:01.456Z,1.50
2022-12-14T09:31:28.984Z,1.54
2022-12-14T09:33:56.925Z,1.57
2022-12-14T09:36:26.760Z,1.65
2022-12-14T09:38:55.460Z,1.65
2022-12-14T09:41:34.915Z,1.67
2022-12-14T09:44:27.224Z,1.58
2022-12-14T09:47:19.163Z,1.62
2022-12-14T09:49:58.862Z,1.68
2022-12-14T09:52:51.313Z,1.61
2022-12-14T09:55:26.384Z,1.62
2022-12-14T09:58:00.191Z,1.46
2022-12-14T10:00:34.995Z,1.51
2022-12-14T10:03:20.968Z,1.52
2022-12-14T10:06:10.830Z,1.52
2022-12-14T10:08:52.704Z,1.50
2022-12-14T10:11:46.817Z,1.56
2022-12-14T10:14:36.302Z,1.57
2022-12-14T10:17:16.033Z,1.64
2022-12-14T10:19:55.470Z,1.57
2022-12-14T10:22:28.742Z,1.57
2022-12-14T10:25:15.601Z,1.59
2022-12-14T10:28:09.946Z,1.70
2022-12-14T10:30:36.711Z,1.74
2022-12-14T10:33:24.985Z,1.63
2022-12-14T10:36:04.642Z,1.59
2022-12-14T10:38:41.601Z,1.58
2022-12-14T10:41:41.308Z,1.73
2022-12-14T10:44:14.802Z,1.80
2022-12-14T10:46:56.499Z,1.82
2022-12-14T10:49:31.431Z,1.81
2022-12-14T10:52:17.756Z,1.89
2022-12-14T10:54:50.867Z,1.83
2022-12-14T10:57:22.867Z,1.77
2022-12-14T11:00:07.244Z,1.90
2022-12-14T11:02:40.704Z,2.02
2022-12-14T11:05:31.117Z,1.96
2022-12-14T11:08:02.027Z,2.01
2022-12-14T11:10:32.531Z,2.15
2022-12-14T11:13:09.287Z,2.20
2022-12-14T11:15:38.692Z,2.25
2022-12-14T11:18:31.356Z,2.29
2022-12-14T11:21:04.057Z,2.37
2022-12-14T11:23:40.411Z,2.38
2022-12-14T11:26:15.533Z,2.39
2022-12-14T11:29:19.529Z,2.42
2022-12-14T11:31:49.000Z,2.49
2022-12-14T11:34:39.240Z,2.56
2022-12-14T11:37:26.650Z,2.66
2022-12-14T11:39:57.893Z,2.68
2022-12-14T11:42:26.197Z,2.77
2022-12-14T11:44:53.866Z,2.69
2022-12-14T11:47:26.515Z,2.70
2022-12-14T11:49:55.740Z,2.65
2022-12-14T11:52:26.767Z,2.54
2022-12-14T11:54:57.244Z,2.59
2022-12-14T11:57:49.278Z,2.61
2022-12-14T12:00:29.083Z,2.70
2022-12-14T12:03:13.966Z,2.74
2022-12-14T12:05:44.039Z,2.71
2022-12-14T12:08:27.858Z,2.81
2022-12-14T12:11:02.844Z,2.66
2022-12-14T12:13:40.153Z,2.62
2022-12-14T12:16:10.562Z,2.66
2022-12-14T12:18:46.967Z,2.69
2022-12-14T12:21:14.466Z,2.68
2022-12-14T12:23:48.501Z,2.69
2022-12-14T12:26:29.090Z,2.73
2022-12-14T12:29:03.258Z,2.80
2022-12-14T12:31:40.996Z,2.75
2022-12-14T12:34:16.449Z,2.79
2022-12-14T12:37:09.673Z,2.83
2022-12-14T12:39:37.125Z,2.78
2022-12-14T12:42:26.710Z,2.84
2022-12-14T12:45:07.125Z,2.87
2022-12-14T12:47:47.121Z,2.90
2022-12-14T12:50:25.509Z,2.85
2022-12-14T12:53:02.390Z,2.84
2022-12-14T12:55:36.538Z,2.81
2022-12-14T12:58:10.061Z,2.80
2022-12-14T13:00:41.086Z,2.83
2022-12-14T13:03:24.869Z,2.85
2022-12-14T13:05:55.642Z,2.82
2022-12-14T13:08:29.124Z,2.85
2022-12-14T13:11:28.329Z,2.94
2022-12-14T13:14:02.943Z,3.06
2022-12-14T13:16:35.153Z,3.18
2022-12-14T13:22:06.612Z,3.11
2022-12-14T13:24:36.610Z,3.24
2022-12-14T13:27:24.575Z,3.18
2022-12-14T13:30:10.788Z,3.09
2022-12-14T13:33:09.007Z,3.12
2022-12-14T13:36:23.439Z,3.05
2022-12-14T13:39:33.750Z,3.00
2022-12-14T13:42:17.487Z,3.04
2022-12-14T13:44:59.823Z,3.00
2022-12-14T13:47:51.681Z,2.98
2022-12-14T13:50:49.817Z,3.00
2022-12-14T13:53:31.751Z,3.10
2022-12-14T13:56:01.353Z,3.15
2022-12-14T13:58:34.459Z,3.11
2022-12-14T14:01:07.697Z,3.13
2022-12-14T14:03:35.479Z,3.04
2022-12-14T14:06:16.362Z,2.96
2022-12-14T14:08:45.636Z,2.95
2022-12-14T14:14:28.961Z,2.95
2022-12-14T14:17:00.579Z,3.04
2022-12-14T14:19:35.226Z,2.97
2022-12-14T14:22:25.206Z,3.06
2022-12-14T14:24:55.135Z,3.06
2022-12-14T14:27:25.537Z,3.17
2022-12-14T14:29:54.663Z,3.22
2022-12-14T14:32:41.101Z,3.13
2022-12-14T14:35:29.847Z,3.02
2022-12-14T14:38:33.094Z,2.94
2022-12-14T14:41:17.823Z,3.07
2022-12-14T14:43:57.641Z,3.05
2022-12-14T14:46:36.618Z,3.10
2022-12-14T14:49:06.929Z,3.04
2022-12-14T14:51:36.813Z,2.93
2022-12-14T14:54:37.617Z,2.88
2022-12-14T14:57:24.449Z,2.88
2022-12-14T15:00:01.612Z,2.95
2022-12-14T15:02:34.682Z,2.99
2022-12-14T15:05:33.267Z,2.91
2022-12-14T15:07:55.645Z,2.83
2022-12-14T15:10:31.687Z,2.83
2022-12-14T15:13:07.000Z,2.87
2022-12-14T15:15:39.819Z,2.77
2022-12-14T15:18:28.804Z,2.75
2022-12-14T15:21:11.687Z,2.81
2022-12-14T15:23:45.260Z,2.76
2022-12-14T15:26:33.481Z,2.73
2022-12-14T15:29:04.616Z,2.69
2022-12-14T15:31:42.292Z,2.60
2022-12-14T15:34:18.602Z,2.70
2022-12-14T15:36:46.324Z,2.68
2022-12-14T15:39:44.471Z,2.71
2022-12-14T15:42:15.903Z,2.69
2022-12-14T15:44:52.023Z,2.55
2022-12-14T15:47:27.612Z,2.49
2022-12-14T15:50:00.500Z,2.55
2022-12-14T15:52:31.361Z,2.52
2022-12-14T15:54:59.773Z,2.48
2022-12-14T15:57:27.460Z,2.53
2022-12-14T15:59:56.008Z,2.50
2022-12-14T16:02:31.876Z,2.47
2022-12-14T16:05:02.635Z,2.47
2022-12-14T16:07:39.372Z,2.45
2022-12-14T16:10:33.437Z,2.47
2022-12-14T16:13:15.661Z,2.37
2022-12-14T16:15:43.724Z,2.39
2022-12-14T16:18:13.757Z,2.42
2022-12-14T16:20:54.922Z,2.40
2022-12-14T16:23:28.331Z,2.39
2022-12-14T16:26:04.553Z,2.34
2022-12-14T16:28:37.528Z,2.36
2022-12-14T16:31:06.563Z,2.25
2022-12-14T16:33:42.900Z,2.33
2022-12-14T16:36:25.860Z,2.40
2022-12-14T16:39:02.069Z,2.41
2022-12-14T16:41:52.706Z,2.45
2022-12-14T16:44:40.828Z,2.46
2022-12-14T16:47:16.834Z,2.57
2022-12-14T16:49:51.790Z,2.45
2022-12-14T16:52:26.363Z,2.57
2022-12-14T16:55:18.930Z,2.53
2022-12-14T16:57:49.390Z,2.64
2022-12-14T17:00:23.060Z,2.64
2022-12-14T17:02:57.929Z,2.61
2022-12-14T17:05:33.036Z,2.66
2022-12-14T17:08:00.524Z,2.74
2022-12-14T17:10:28.389Z,2.75
2022-12-14T17:13:02.947Z,2.67
2022-12-14T17:15:34.502Z,2.55
2022-12-14T17:18:04.706Z,2.56
2022-12-14T17:20:39.305Z,2.53
2022-12-14T17:23:09.919Z,2.53
2022-12-14T17:25:37.644Z,2.50
2022-12-14T17:28:22.864Z,2.36
2022-12-14T17:30:57.426Z,2.45
2022-12-14T17:33:27.795Z,2.37
2022-12-14T17:35:56.260Z,2.31
2022-12-14T17:38:24.112Z,2.33
2022-12-14T17:40:53.824Z,2.36
2022-12-14T17:43:25.688Z,2.40
2022-12-14T17:45:53.752Z,2.35
2022-12-14T17:48:21.589Z,2.34
2022-12-14T17:50:50.304Z,2.24
2022-12-14T17:53:21.996Z,2.22
2022-12-14T17:55:49.452Z,2.22
2022-12-14T17:58:17.026Z,2.18
2022-12-14T18:01:00.057Z,2.17
2022-12-14T18:03:33.018Z,2.09
2022-12-14T18:06:02.372Z,2.09
2022-12-14T18:08:29.781Z,2.03
2022-12-14T18:11:02.015Z,1.97
2022-12-14T18:13:31.925Z,1.96
2022-12-14T18:16:00.651Z,1.81
2022-12-14T18:18:29.586Z,1.72
2022-12-14T18:21:02.562Z,1.74
2022-12-14T18:23:32.085Z,1.63
2022-12-14T18:26:00.729Z,1.65
2022-12-14T18:28:28.193Z,1.60
2022-12-14T18:31:07.035Z,1.59
2022-12-14T18:33:35.325Z,1.60
2022-12-14T18:36:02.846Z,1.60
2022-12-14T18:38:30.145Z,1.60
2022-12-14T18:40:58.893Z,1.60
2022-12-14T18:43:28.787Z,1.57
2022-12-14T18:45:57.077Z,1.50
2022-12-14T18:48:29.627Z,1.44
2022-12-14T18:51:19.905Z,1.51
2022-12-14T18:53:48.128Z,1.51
2022-12-14T18:56:15.481Z,1.44
2022-12-14T18:58:45.324Z,1.49
2022-12-14T19:01:15.420Z,1.47
2022-12-14T19:03:43.914Z,1.58
2022-12-14T19:06:42.922Z,1.58
2022-12-14T19:09:01.555Z,1.62
2022-12-14T19:11:38.828Z,1.66
2022-12-14T19:14:07.121Z,1.65
2022-12-14T19:16:34.520Z,1.69
2022-12-14T19:19:02.216Z,1.71
2022-12-14T19:21:31.355Z,1.69
2022-12-14T19:23:59.968Z,1.70
2022-12-14T19:26:28.658Z,1.74
2022-12-14T19:28:56.838Z,1.78
2022-12-14T19:31:24.429Z,1.78
2022-12-14T19:33:52.031Z,1.76
2022-12-14T19:36:19.461Z,1.70
2022-12-14T19:38:49.070Z,1.75
2022-12-14T19:41:20.447Z,1.74
2022-12-14T19:43:48.449Z,1.70
2022-12-14T19:46:17.698Z,1.77
2022-12-14T19:48:45.383Z,1.80
2022-12-14T19:51:14.341Z,1.81
2022-12-14T19:53:44.099Z,1.84
2022-12-14T19:56:14.931Z,1.88
2022-12-14T19:58:42.734Z,1.90
2022-12-14T20:01:12.212Z,1.92
2022-12-14T20:03:40.364Z,1.95
2022-12-14T20:06:09.699Z,1.97
2022-12-14T20:08:40.554Z,1.96
2022-12-14T20:11:11.322Z,1.94
2022-12-14T20:13:38.877Z,1.96
2022-12-14T20:16:06.372Z,1.93
2022-12-14T20:18:34.802Z,2.02
2022-12-14T20:21:08.416Z,2.09
2022-12-14T20:23:37.533Z,2.06
2022-12-14T20:26:08.467Z,2.08
2022-12-14T20:28:36.043Z,2.06
2022-12-14T20:31:06.605Z,2.21
2022-12-14T20:33:35.327Z,2.22
2022-12-14T20:36:03.929Z,2.26
2022-12-14T20:38:31.503Z,2.21
2022-12-14T20:41:09.478Z,2.24
2022-12-14T20:43:39.120Z,2.32
2022-12-14T20:46:07.222Z,2.25
2022-12-14T20:48:34.770Z,2.30
2022-12-14T20:51:03.069Z,2.33
2022-12-14T20:53:31.189Z,2.32
2022-12-14T20:56:04.991Z,2.30
2022-12-14T20:58:32.529Z,2.31
2022-12-14T21:01:10.633Z,2.27
2022-12-14T21:03:38.235Z,2.30
2022-12-14T21:06:05.712Z,2.26
2022-12-14T21:08:53.319Z,2.27
2022-12-14T21:11:39.338Z,2.33
2022-12-14T21:14:07.157Z,2.28
2022-12-14T21:16:34.996Z,2.31
2022-12-14T21:19:03.085Z,2.36
2022-12-14T21:21:30.538Z,2.40
2022-12-14T21:23:57.892Z,2.43
2022-12-14T21:26:26.642Z,2.32
2022-12-14T21:28:55.402Z,2.38
2022-12-14T21:31:22.925Z,2.40
2022-12-14T21:33:50.517Z,2.42
2022-12-14T21:36:17.806Z,2.44
2022-12-14T21:38:45.020Z,2.42
2022-12-14T21:41:30.844Z,2.49
2022-12-14T21:43:59.480Z,2.57
2022-12-14T21:46:29.514Z,2.62
2022-12-14T21:48:57.488Z,2.60
2022-12-14T21:51:25.010Z,2.58
2022-12-14T21:54:00.630Z,2.57
2022-12-14T21:56:51.398Z,2.64
2022-12-14T21:59:27.585Z,2.72
2022-12-14T22:01:56.882Z,2.70
2022-12-14T22:04:25.479Z,2.65
2022-12-14T22:06:53.177Z,2.68
2022-12-14T22:09:21.525Z,2.69
2022-12-14T22:11:49.182Z,2.77
2022-12-14T22:14:22.464Z,2.85
2022-12-14T22:16:51.360Z,2.88
2022-12-14T22:19:24.668Z,2.81
2022-12-14T22:21:53.065Z,2.90
2022-12-14T22:24:22.496Z,2.86
2022-12-14T22:26:50.721Z,2.85
2022-12-14T22:29:19.616Z,2.71
2022-12-14T22:31:47.136Z,2.76
2022-12-14T22:34:17.348Z,2.85
2022-12-14T22:36:45.755Z,2.88
2022-12-14T22:39:13.553Z,2.84
2022-12-14T22:41:41.515Z,2.86
2022-12-14T22:44:11.291Z,2.84
2022-12-14T22:46:39.487Z,2.83
2022-12-14T22:49:07.284Z,2.82
2022-12-14T22:51:34.755Z,2.79
2022-12-14T22:54:02.446Z,2.89
2022-12-14T22:56:40.140Z,2.85
2022-12-14T22:59:16.238Z,2.83
2022-12-14T23:01:44.280Z,2.87
2022-12-14T23:04:18.364Z,2.74
2022-12-14T23:06:45.972Z,2.88
2022-12-14T23:09:31.935Z,2.75
2022-12-14T23:12:21.558Z,2.65
2022-12-14T23:15:08.636Z,2.48
2022-12-14T23:17:54.857Z,2.37
2022-12-14T23:20:41.086Z,2.38
2022-12-14T23:23:28.372Z,2.31
2022-12-14T23:26:14.812Z,2.25
2022-12-14T23:29:00.711Z,2.25
2022-12-14T23:31:46.653Z,2.02
2022-12-14T23:34:32.647Z,2.06
2022-12-14T23:37:20.655Z,2.04
2022-12-14T23:40:06.863Z,2.10
2022-12-14T23:42:52.941Z,1.98
2022-12-14T23:45:39.325Z,1.90
2022-12-14T23:48:26.273Z,1.89
2022-12-14T23:51:12.378Z,1.88
2022-12-14T23:53:58.204Z,1.88
2022-12-14T23:56:44.380Z,1.90
2022-12-14T23:59:32.592Z,1.93
